createdAt,value
2022-12-22T00:00:06.152Z,1004.19
2022-12-22T00:01:06.128Z,1004.15
2022-12-22T00:02:06.205Z,1004.22
2022-12-22T00:03:06.106Z,1004.16
2022-12-22T00:04:06.050Z,1004.14
2022-12-22T00:05:05.807Z,1004.14
2022-12-22T00:06:05.742Z,1004.16
2022-12-22T00:07:05.675Z,1004.14
2022-12-22T00:08:05.622Z,1004.16
2022-12-22T00:09:06.103Z,1004.20
2022-12-22T00:10:05.498Z,1004.11
2022-12-22T00:11:05.433Z,1004.12
2022-12-22T00:12:05.339Z,1004.18
2022-12-22T00:13:05.279Z,1004.18
2022-12-22T00:14:05.242Z,1004.20
2022-12-22T00:15:05.758Z,1004.23
2022-12-22T00:16:05.099Z,1004.25
2022-12-22T00:17:05.050Z,1004.12
2022-12-22T00:18:04.938Z,1004.08
2022-12-22T00:19:04.872Z,1004.10
2022-12-22T00:20:04.799Z,1004.09
2022-12-22T00:21:04.740Z,1004.11
2022-12-22T00:22:04.672Z,1004.11
2022-12-22T00:23:04.615Z,1004.08
2022-12-22T00:24:04.552Z,1004.08
2022-12-22T00:25:04.473Z,1004.01
2022-12-22T00:26:04.414Z,1004.03
2022-12-22T00:27:04.348Z,1004.03
2022-12-22T00:28:04.269Z,1004.08
2022-12-22T00:29:04.208Z,1004.08
2022-12-22T00:30:04.163Z,1004.06
2022-12-22T00:31:04.151Z,1004.05
2022-12-22T00:32:04.009Z,1004.03
2022-12-22T00:33:03.975Z,1004.02
2022-12-22T00:34:03.881Z,1004.02
2022-12-22T00:35:03.803Z,1004.04
2022-12-22T00:36:03.748Z,1004.09
2022-12-22T00:37:03.656Z,1004.03
2022-12-22T00:38:03.596Z,1004.07
2022-12-22T00:39:03.526Z,1004.06
2022-12-22T00:40:03.470Z,1004.04
2022-12-22T00:41:03.448Z,1004.05
2022-12-22T00:42:03.330Z,1003.99
2022-12-22T00:43:03.257Z,1003.95
2022-12-22T00:44:03.199Z,1003.95
2022-12-22T00:45:03.126Z,1003.97
2022-12-22T00:46:03.150Z,1003.98
2022-12-22T00:47:03.035Z,1003.98
2022-12-22T00:48:02.935Z,1003.97
2022-12-22T00:49:02.853Z,1003.96
2022-12-22T00:50:02.788Z,1003.87
2022-12-22T00:51:02.741Z,1003.89
2022-12-22T00:52:02.659Z,1003.85
2022-12-22T00:53:02.594Z,1003.87
2022-12-22T00:54:02.513Z,1003.88
2022-12-22T00:55:02.453Z,1003.82
2022-12-22T00:56:02.397Z,1003.82
2022-12-22T00:57:02.337Z,1003.77
2022-12-22T00:58:02.256Z,1003.78
2022-12-22T00:59:02.190Z,1003.79
2022-12-22T01:00:02.142Z,1003.72
2022-12-22T01:01:02.061Z,1003.70
2022-12-22T01:02:02.106Z,1003.70
2022-12-22T01:03:02.095Z,1003.70
2022-12-22T01:04:01.861Z,1003.74
2022-12-22T01:05:01.790Z,1003.72
2022-12-22T01:06:01.719Z,1003.73
2022-12-22T01:07:01.773Z,1003.70
2022-12-22T01:08:01.613Z,1003.72
2022-12-22T01:09:01.521Z,1003.75
2022-12-22T01:10:01.482Z,1003.73
2022-12-22T01:11:01.395Z,1003.74
2022-12-22T01:12:01.323Z,1003.72
2022-12-22T01:13:01.258Z,1003.69
2022-12-22T01:14:01.202Z,1003.67
2022-12-22T01:15:01.115Z,1003.71
2022-12-22T01:16:01.129Z,1003.76
2022-12-22T01:17:00.979Z,1003.78
2022-12-22T01:18:00.913Z,1003.76
2022-12-22T01:19:00.857Z,1003.81
2022-12-22T01:20:00.956Z,1003.78
2022-12-22T01:21:00.720Z,1003.77
2022-12-22T01:22:00.663Z,1003.73
2022-12-22T01:23:00.580Z,1003.74
2022-12-22T01:24:00.520Z,1003.66
2022-12-22T01:25:00.459Z,1003.63
2022-12-22T01:26:00.374Z,1003.62
2022-12-22T01:27:00.308Z,1003.63
2022-12-22T01:28:00.265Z,1003.57
2022-12-22T01:29:00.219Z,1003.50
2022-12-22T01:30:00.128Z,1003.52
2022-12-22T01:31:00.172Z,1003.52
2022-12-22T01:31:59.970Z,1003.48
2022-12-22T01:32:59.917Z,1003.49
2022-12-22T01:33:59.839Z,1003.49
2022-12-22T01:34:59.779Z,1003.49
2022-12-22T01:35:59.705Z,1003.49
2022-12-22T01:36:59.643Z,1003.56
2022-12-22T01:37:59.584Z,1003.54
2022-12-22T01:38:59.521Z,1003.52
2022-12-22T01:39:59.434Z,1003.54
2022-12-22T01:40:59.367Z,1003.46
2022-12-22T01:41:59.307Z,1003.51
2022-12-22T01:42:59.241Z,1003.46
2022-12-22T01:43:59.168Z,1003.48
2022-12-22T01:44:59.100Z,1003.45
2022-12-22T01:45:59.077Z,1003.39
2022-12-22T01:46:58.972Z,1003.40
2022-12-22T01:47:58.920Z,1003.37
2022-12-22T01:48:58.829Z,1003.31
2022-12-22T01:49:58.773Z,1003.31
2022-12-22T01:50:58.740Z,1003.22
2022-12-22T01:51:58.636Z,1003.24
2022-12-22T01:52:58.614Z,1003.23
2022-12-22T01:53:58.494Z,1003.21
2022-12-22T01:54:58.441Z,1003.13
2022-12-22T01:55:58.362Z,1003.14
2022-12-22T01:56:58.304Z,1003.15
2022-12-22T01:57:58.233Z,1003.14
2022-12-22T01:58:58.155Z,1003.09
2022-12-22T01:59:58.187Z,1003.09
2022-12-22T02:00:58.037Z,1003.10
2022-12-22T02:01:58.160Z,1003.08
2022-12-22T02:02:58.001Z,1003.06
2022-12-22T02:03:57.849Z,1003.08
2022-12-22T02:04:57.749Z,1003.08
2022-12-22T02:05:57.711Z,1003.08
2022-12-22T02:07:00.174Z,1003.08
2022-12-22T02:07:57.743Z,1003.09
2022-12-22T02:08:57.490Z,1003.06
2022-12-22T02:09:57.426Z,1003.08
2022-12-22T02:10:57.360Z,1003.07
2022-12-22T02:11:57.293Z,1003.12
2022-12-22T02:12:57.244Z,1003.12
2022-12-22T02:13:57.161Z,1003.12
2022-12-22T02:14:57.107Z,1003.13
2022-12-22T02:15:57.137Z,1003.12
2022-12-22T02:16:56.960Z,1003.12
2022-12-22T02:17:56.880Z,1003.08
2022-12-22T02:18:56.809Z,1003.04
2022-12-22T02:19:56.748Z,1003.00
2022-12-22T02:20:56.686Z,1002.98
2022-12-22T02:21:56.611Z,1002.94
2022-12-22T02:22:56.546Z,1002.85
2022-12-22T02:23:56.536Z,1002.84
2022-12-22T02:24:56.460Z,1002.87
2022-12-22T02:25:56.359Z,1002.83
2022-12-22T02:26:56.283Z,1002.85
2022-12-22T02:27:56.208Z,1002.79
2022-12-22T02:28:56.150Z,1002.77
2022-12-22T02:29:56.089Z,1002.76
2022-12-22T02:30:56.049Z,1002.74
2022-12-22T02:31:56.032Z,1002.73
2022-12-22T02:32:55.892Z,1002.74
2022-12-22T02:33:55.809Z,1002.71
2022-12-22T02:34:55.741Z,1002.69
2022-12-22T02:35:55.687Z,1002.65
2022-12-22T02:36:55.604Z,1002.70
2022-12-22T02:37:55.531Z,1002.70
2022-12-22T02:38:55.465Z,1002.71
2022-12-22T02:39:55.406Z,1002.64
2022-12-22T02:40:55.333Z,1002.63
2022-12-22T02:41:55.269Z,1002.62
2022-12-22T02:42:55.204Z,1002.58
2022-12-22T02:43:55.135Z,1002.55
2022-12-22T02:44:55.070Z,1002.57
2022-12-22T02:45:55.002Z,1002.58
2022-12-22T02:46:54.969Z,1002.61
2022-12-22T02:47:54.886Z,1002.64
2022-12-22T02:48:54.793Z,1002.62
2022-12-22T02:49:54.734Z,1002.60
2022-12-22T02:50:54.695Z,1002.59
2022-12-22T02:51:54.611Z,1002.61
2022-12-22T02:52:54.550Z,1002.57
2022-12-22T02:53:54.461Z,1002.51
2022-12-22T02:54:54.438Z,1002.52
2022-12-22T02:55:54.325Z,1002.58
2022-12-22T02:56:54.260Z,1002.53
2022-12-22T02:57:54.197Z,1002.53
2022-12-22T02:58:54.137Z,1002.52
2022-12-22T02:59:54.054Z,1002.48
2022-12-22T03:00:53.983Z,1002.45
2022-12-22T03:01:54.130Z,1002.41
2022-12-22T03:02:54.155Z,1002.41
2022-12-22T03:03:53.896Z,1002.38
2022-12-22T03:04:53.736Z,1002.38
2022-12-22T03:05:53.665Z,1002.37
2022-12-22T03:06:53.584Z,1002.33
2022-12-22T03:07:53.516Z,1002.33
2022-12-22T03:08:53.466Z,1002.32
2022-12-22T03:09:53.384Z,1002.25
2022-12-22T03:10:53.323Z,1002.23
2022-12-22T03:11:53.266Z,1002.27
2022-12-22T03:12:53.185Z,1002.27
2022-12-22T03:13:53.114Z,1002.25
2022-12-22T03:14:53.052Z,1002.26
2022-12-22T03:15:53.031Z,1002.28
2022-12-22T03:16:52.919Z,1002.30
2022-12-22T03:17:52.864Z,1002.32
2022-12-22T03:18:52.843Z,1002.34
2022-12-22T03:19:52.724Z,1002.33
2022-12-22T03:20:52.646Z,1002.34
2022-12-22T03:21:52.579Z,1002.38
2022-12-22T03:22:52.513Z,1002.33
2022-12-22T03:23:52.441Z,1002.32
2022-12-22T03:24:52.372Z,1002.30
2022-12-22T03:25:52.324Z,1002.28
2022-12-22T03:26:52.236Z,1002.26
2022-12-22T03:27:52.185Z,1002.27
2022-12-22T03:28:52.122Z,1002.24
2022-12-22T03:29:52.104Z,1002.19
2022-12-22T03:30:51.976Z,1002.17
2022-12-22T03:31:51.976Z,1002.17
2022-12-22T03:32:51.844Z,1002.18
2022-12-22T03:33:51.781Z,1002.16
2022-12-22T03:34:51.729Z,1002.15
2022-12-22T03:35:51.647Z,1002.10
2022-12-22T03:36:51.572Z,1002.08
2022-12-22T03:37:51.504Z,1002.07
2022-12-22T03:38:51.452Z,1002.04
2022-12-22T03:39:51.381Z,1002.05
2022-12-22T03:40:51.348Z,1002.03
2022-12-22T03:41:51.240Z,1002.01
2022-12-22T03:42:51.183Z,1002.00
2022-12-22T03:43:51.108Z,1002.00
2022-12-22T03:44:51.053Z,1001.95
2022-12-22T03:45:50.979Z,1001.91
2022-12-22T03:46:50.919Z,1001.89
2022-12-22T03:47:50.836Z,1001.90
2022-12-22T03:48:50.858Z,1001.84
2022-12-22T03:49:50.719Z,1001.84
2022-12-22T03:50:50.642Z,1001.79
2022-12-22T03:51:50.589Z,1001.76
2022-12-22T03:52:50.636Z,1001.78
2022-12-22T03:53:50.444Z,1001.82
2022-12-22T03:54:50.372Z,1001.80
2022-12-22T03:55:50.297Z,1001.78
2022-12-22T03:56:50.243Z,1001.81
2022-12-22T03:57:50.169Z,1001.82
2022-12-22T03:58:50.094Z,1001.80
2022-12-22T03:59:50.032Z,1001.76
2022-12-22T04:00:50.031Z,1001.73
2022-12-22T04:01:50.076Z,1001.78
2022-12-22T04:02:49.961Z,1001.70
2022-12-22T04:03:49.755Z,1001.70
2022-12-22T04:04:49.701Z,1001.71
2022-12-22T04:05:49.629Z,1001.67
2022-12-22T04:06:49.573Z,1001.66
2022-12-22T04:07:49.504Z,1001.64
2022-12-22T04:08:49.422Z,1001.64
2022-12-22T04:09:49.360Z,1001.61
2022-12-22T04:10:49.312Z,1001.59
2022-12-22T04:11:49.376Z,1001.58
2022-12-22T04:12:49.398Z,1001.61
2022-12-22T04:13:49.262Z,1001.59
2022-12-22T04:14:49.138Z,1001.62
2022-12-22T04:15:48.967Z,1001.60
2022-12-22T04:16:49.000Z,1001.63
2022-12-22T04:17:48.824Z,1001.60
2022-12-22T04:18:48.765Z,1001.57
2022-12-22T04:19:48.690Z,1001.60
2022-12-22T04:20:48.637Z,1001.58
2022-12-22T04:21:48.555Z,1001.63
2022-12-22T04:22:48.485Z,1001.55
2022-12-22T04:23:48.423Z,1001.56
2022-12-22T04:24:48.372Z,1001.58
2022-12-22T04:25:48.294Z,1001.56
2022-12-22T04:26:48.216Z,1001.60
2022-12-22T04:27:48.192Z,1001.59
2022-12-22T04:28:48.136Z,1001.59
2022-12-22T04:29:48.017Z,1001.60
2022-12-22T04:30:47.945Z,1001.60
2022-12-22T04:31:48.066Z,1001.61
2022-12-22T04:32:47.816Z,1001.58
2022-12-22T04:33:47.750Z,1001.58
2022-12-22T04:34:47.725Z,1001.62
2022-12-22T04:35:47.620Z,1001.60
2022-12-22T04:36:47.550Z,1001.56
2022-12-22T04:37:47.482Z,1001.54
2022-12-22T04:38:47.513Z,1001.52
2022-12-22T04:39:47.367Z,1001.53
2022-12-22T04:40:47.278Z,1001.49
2022-12-22T04:41:47.222Z,1001.46
2022-12-22T04:42:47.220Z,1001.47
2022-12-22T04:43:47.083Z,1001.42
2022-12-22T04:44:47.035Z,1001.45
2022-12-22T04:45:46.952Z,1001.44
2022-12-22T04:46:46.899Z,1001.44
2022-12-22T04:47:46.813Z,1001.43
2022-12-22T04:48:46.756Z,1001.38
2022-12-22T04:49:46.681Z,1001.40
2022-12-22T04:50:46.605Z,1001.35
2022-12-22T04:51:46.541Z,1001.32
2022-12-22T04:52:46.674Z,1001.29
2022-12-22T04:53:46.543Z,1001.31
2022-12-22T04:54:46.449Z,1001.31
2022-12-22T04:55:46.426Z,1001.31
2022-12-22T04:56:46.477Z,1001.29
2022-12-22T04:57:46.941Z,1001.28
2022-12-22T04:58:46.191Z,1001.24
2022-12-22T04:59:46.193Z,1001.25
2022-12-22T05:00:45.971Z,1001.22
2022-12-22T05:01:45.963Z,1001.20
2022-12-22T05:02:45.969Z,1001.17
2022-12-22T05:03:45.860Z,1001.17
2022-12-22T05:04:45.693Z,1001.18
2022-12-22T05:05:45.605Z,1001.18
2022-12-22T05:06:45.533Z,1001.14
2022-12-22T05:07:45.473Z,1001.13
2022-12-22T05:08:45.436Z,1001.09
2022-12-22T05:09:45.335Z,1001.09
2022-12-22T05:10:45.272Z,1001.10
2022-12-22T05:11:45.223Z,1001.06
2022-12-22T05:12:45.135Z,1001.07
2022-12-22T05:13:45.105Z,1001.02
2022-12-22T05:14:45.013Z,1001.07
2022-12-22T05:15:44.953Z,1001.04
2022-12-22T05:16:44.913Z,1001.02
2022-12-22T05:17:44.831Z,1001.04
2022-12-22T05:18:44.744Z,1000.98
2022-12-22T05:19:44.680Z,1000.98
2022-12-22T05:20:44.602Z,1000.99
2022-12-22T05:21:44.600Z,1000.94
2022-12-22T05:22:44.483Z,1000.97
2022-12-22T05:23:44.413Z,1000.93
2022-12-22T05:24:44.333Z,1000.91
2022-12-22T05:25:44.270Z,1000.93
2022-12-22T05:26:44.197Z,1000.95
2022-12-22T05:27:44.141Z,1000.89
2022-12-22T05:28:44.068Z,1000.86
2022-12-22T05:29:43.991Z,1000.87
2022-12-22T05:30:43.972Z,1000.90
2022-12-22T05:31:47.336Z,1000.85
2022-12-22T05:32:43.819Z,1000.83
2022-12-22T05:33:43.779Z,1000.92
2022-12-22T05:34:43.702Z,1000.82
2022-12-22T05:35:43.601Z,1000.83
2022-12-22T05:36:43.530Z,1000.82
2022-12-22T05:37:43.469Z,1000.80
2022-12-22T05:38:43.389Z,1000.77
2022-12-22T05:39:43.335Z,1000.77
2022-12-22T05:40:43.254Z,1000.73
2022-12-22T05:41:43.196Z,1000.76
2022-12-22T05:42:43.136Z,1000.73
2022-12-22T05:43:43.081Z,1000.71
2022-12-22T05:44:42.997Z,1000.74
2022-12-22T05:45:42.945Z,1000.75
2022-12-22T05:46:42.887Z,1000.71
2022-12-22T05:47:42.805Z,1000.68
2022-12-22T05:48:42.744Z,1000.65
2022-12-22T05:49:42.662Z,1000.69
2022-12-22T05:50:42.590Z,1000.63
2022-12-22T05:51:42.523Z,1000.66
2022-12-22T05:52:42.467Z,1000.59
2022-12-22T05:53:42.386Z,1000.61
2022-12-22T05:54:42.344Z,1000.63
2022-12-22T05:55:42.251Z,1000.60
2022-12-22T05:56:42.205Z,1000.57
2022-12-22T05:57:42.165Z,1000.57
2022-12-22T05:58:42.084Z,1000.59
2022-12-22T05:59:42.003Z,1000.60
2022-12-22T06:00:41.928Z,1000.55
2022-12-22T06:01:41.960Z,1000.58
2022-12-22T06:02:41.857Z,1000.57
2022-12-22T06:03:41.858Z,1000.56
2022-12-22T06:04:41.683Z,1000.54
2022-12-22T06:05:41.592Z,1000.50
2022-12-22T06:06:41.534Z,1000.50
2022-12-22T06:07:41.447Z,1000.49
2022-12-22T06:08:41.395Z,1000.43
2022-12-22T06:09:41.321Z,1000.45
2022-12-22T06:10:41.257Z,1000.41
2022-12-22T06:11:41.180Z,1000.41
2022-12-22T06:12:41.150Z,1000.38
2022-12-22T06:13:41.060Z,1000.33
2022-12-22T06:14:40.991Z,1000.32
2022-12-22T06:15:40.981Z,1000.31
2022-12-22T06:16:40.905Z,1000.36
2022-12-22T06:17:44.661Z,1000.36
2022-12-22T06:18:40.723Z,1000.31
2022-12-22T06:19:40.654Z,1000.34
2022-12-22T06:20:40.600Z,1000.29
2022-12-22T06:21:40.522Z,1000.29
2022-12-22T06:22:40.490Z,1000.29
2022-12-22T06:23:40.392Z,1000.29
2022-12-22T06:24:40.316Z,1000.26
2022-12-22T06:25:40.259Z,1000.28
2022-12-22T06:26:40.226Z,1000.26
2022-12-22T06:27:40.115Z,1000.23
2022-12-22T06:28:40.077Z,1000.25
2022-12-22T06:29:40.011Z,1000.27
2022-12-22T06:30:39.990Z,1000.21
2022-12-22T06:31:39.932Z,1000.17
2022-12-22T06:32:39.796Z,1000.17
2022-12-22T06:33:39.713Z,1000.10
2022-12-22T06:34:39.657Z,1000.05
2022-12-22T06:35:39.587Z,1000.06
2022-12-22T06:36:39.516Z,1000.07
2022-12-22T06:37:39.459Z,1000.09
2022-12-22T06:38:39.398Z,1000.09
2022-12-22T06:39:39.329Z,1000.07
2022-12-22T06:40:39.245Z,1000.06
2022-12-22T06:41:39.221Z,1000.12
2022-12-22T06:42:39.115Z,1000.11
2022-12-22T06:43:39.056Z,1000.11
2022-12-22T06:44:38.988Z,1000.13
2022-12-22T06:45:38.931Z,1000.08
2022-12-22T06:46:38.918Z,1000.05
2022-12-22T06:47:38.804Z,1000.04
2022-12-22T06:48:38.737Z,1000.06
2022-12-22T06:49:38.640Z,1000.05
2022-12-22T06:50:38.580Z,1000.03
2022-12-22T06:51:38.523Z,1000.01
2022-12-22T06:52:38.453Z,1000.02
2022-12-22T06:53:38.385Z,999.99
2022-12-22T06:54:38.334Z,1000.01
2022-12-22T06:55:38.249Z,1000.00
2022-12-22T06:56:38.186Z,1000.05
2022-12-22T06:57:38.113Z,1000.06
2022-12-22T06:58:38.073Z,1000.07
2022-12-22T06:59:37.978Z,1000.06
2022-12-22T07:00:37.944Z,999.99
2022-12-22T07:01:37.944Z,1000.01
2022-12-22T07:02:38.409Z,1000.00
2022-12-22T07:03:37.767Z,1000.06
2022-12-22T07:04:37.666Z,1000.06
2022-12-22T07:05:37.594Z,1000.05
2022-12-22T07:06:37.521Z,1000.08
2022-12-22T07:07:37.464Z,1000.06
2022-12-22T07:08:37.410Z,1000.08
2022-12-22T07:09:37.332Z,1000.09
2022-12-22T07:10:37.252Z,1000.10
2022-12-22T07:11:37.207Z,1000.07
2022-12-22T07:12:37.125Z,999.97
2022-12-22T07:13:37.079Z,999.99
2022-12-22T07:14:36.993Z,999.97
2022-12-22T07:15:36.980Z,999.92
2022-12-22T07:16:36.876Z,999.91
2022-12-22T07:17:36.786Z,999.94
2022-12-22T07:18:36.745Z,999.92
2022-12-22T07:19:36.669Z,999.89
2022-12-22T07:20:36.597Z,999.88
2022-12-22T07:21:36.628Z,999.85
2022-12-22T07:22:37.323Z,999.83
2022-12-22T07:23:36.494Z,999.83
2022-12-22T07:24:36.536Z,999.79
2022-12-22T07:25:36.454Z,999.79
2022-12-22T07:26:36.291Z,999.78
2022-12-22T07:27:36.122Z,999.76
2022-12-22T07:28:36.142Z,999.77
2022-12-22T07:29:36.185Z,999.77
2022-12-22T07:30:35.922Z,999.78
2022-12-22T07:31:35.901Z,999.78
2022-12-22T07:32:35.809Z,999.73
2022-12-22T07:33:35.716Z,999.73
2022-12-22T07:34:35.663Z,999.75
2022-12-22T07:35:35.613Z,999.75
2022-12-22T07:36:35.580Z,999.77
2022-12-22T07:37:35.454Z,999.81
2022-12-22T07:38:35.402Z,999.76
2022-12-22T07:39:35.343Z,999.77
2022-12-22T07:40:41.147Z,999.76
2022-12-22T07:41:35.238Z,999.75
2022-12-22T07:42:35.169Z,999.75
2022-12-22T07:43:35.051Z,999.75
2022-12-22T07:44:35.005Z,999.74
2022-12-22T07:45:34.918Z,999.69
2022-12-22T07:46:34.918Z,999.66
2022-12-22T07:47:35.731Z,999.66
2022-12-22T07:48:34.769Z,999.62
2022-12-22T07:49:34.664Z,999.64
2022-12-22T07:50:34.589Z,999.62
2022-12-22T07:51:34.585Z,999.58
2022-12-22T07:52:34.461Z,999.59
2022-12-22T07:53:34.469Z,999.58
2022-12-22T07:54:41.138Z,999.56
2022-12-22T07:55:34.303Z,999.58
2022-12-22T07:56:34.188Z,999.56
2022-12-22T07:57:34.122Z,999.58
2022-12-22T07:58:34.083Z,999.52
2022-12-22T07:59:33.990Z,999.53
2022-12-22T08:00:33.932Z,999.54
2022-12-22T08:01:33.980Z,999.48
2022-12-22T08:02:38.918Z,999.52
2022-12-22T08:03:33.718Z,999.47
2022-12-22T08:04:33.742Z,999.52
2022-12-22T08:05:33.620Z,999.49
2022-12-22T08:06:33.541Z,999.44
2022-12-22T08:07:33.744Z,999.48
2022-12-22T08:08:33.401Z,999.48
2022-12-22T08:09:33.408Z,999.47
2022-12-22T08:10:33.261Z,999.49
2022-12-22T08:11:33.200Z,999.44
2022-12-22T08:12:33.201Z,999.47
2022-12-22T08:13:33.057Z,999.45
2022-12-22T08:14:33.003Z,999.44
2022-12-22T08:15:32.932Z,999.44
2022-12-22T08:16:32.942Z,999.39
2022-12-22T08:17:32.901Z,999.42
2022-12-22T08:18:32.735Z,999.41
2022-12-22T08:19:32.664Z,999.38
2022-12-22T08:20:32.611Z,999.41
2022-12-22T08:21:32.525Z,999.41
2022-12-22T08:22:32.459Z,999.38
2022-12-22T08:23:32.429Z,999.37
2022-12-22T08:24:32.366Z,999.38
2022-12-22T08:25:32.263Z,999.32
2022-12-22T08:26:32.230Z,999.31
2022-12-22T08:27:32.129Z,999.32
2022-12-22T08:28:32.068Z,999.30
2022-12-22T08:29:31.998Z,999.29
2022-12-22T08:30:31.938Z,999.31
2022-12-22T08:31:31.903Z,999.26
2022-12-22T08:32:31.796Z,999.28
2022-12-22T08:33:31.718Z,999.23
2022-12-22T08:34:31.664Z,999.25
2022-12-22T08:35:31.590Z,999.24
2022-12-22T08:36:31.530Z,999.25
2022-12-22T08:37:31.500Z,999.26
2022-12-22T08:38:31.435Z,999.17
2022-12-22T08:39:31.352Z,999.19
2022-12-22T08:40:31.259Z,999.22
2022-12-22T08:41:31.202Z,999.21
2022-12-22T08:42:31.121Z,999.18
2022-12-22T08:43:31.073Z,999.20
2022-12-22T08:44:31.003Z,999.17
2022-12-22T08:45:30.935Z,999.16
2022-12-22T08:46:30.907Z,999.14
2022-12-22T08:47:30.836Z,999.19
2022-12-22T08:48:30.722Z,999.12
2022-12-22T08:49:30.673Z,999.13
2022-12-22T08:50:30.586Z,999.11
2022-12-22T08:51:30.549Z,999.11
2022-12-22T08:52:30.461Z,999.16
2022-12-22T08:54:03.204Z,999.18
2022-12-22T08:54:30.337Z,999.15
2022-12-22T08:55:30.263Z,999.07
2022-12-22T08:56:30.200Z,999.09
2022-12-22T08:57:30.143Z,999.05
2022-12-22T08:58:30.197Z,999.04
2022-12-22T08:59:29.995Z,999.07
2022-12-22T09:00:30.045Z,999.01
2022-12-22T09:01:30.090Z,999.02
2022-12-22T09:02:29.916Z,999.00
2022-12-22T09:03:29.847Z,999.00
2022-12-22T09:04:29.668Z,998.97
2022-12-22T09:05:29.595Z,998.96
2022-12-22T09:06:34.636Z,998.98
2022-12-22T09:07:29.460Z,998.99
2022-12-22T09:08:29.396Z,998.95
2022-12-22T09:09:29.334Z,998.96
2022-12-22T09:10:29.268Z,998.95
2022-12-22T09:11:29.210Z,998.93
2022-12-22T09:12:29.129Z,998.94
2022-12-22T09:13:29.055Z,999.01
2022-12-22T09:14:29.013Z,998.92
2022-12-22T09:15:28.935Z,998.92
2022-12-22T09:16:28.890Z,998.92
2022-12-22T09:17:28.797Z,998.95
2022-12-22T09:18:28.730Z,998.92
2022-12-22T09:19:28.681Z,998.93
2022-12-22T09:20:28.608Z,998.92
2022-12-22T09:21:28.525Z,998.93
2022-12-22T09:22:29.043Z,998.85
2022-12-22T09:23:28.408Z,998.83
2022-12-22T09:24:28.337Z,998.86
2022-12-22T09:25:28.263Z,998.82
2022-12-22T09:26:28.185Z,998.80
2022-12-22T09:27:28.127Z,998.88
2022-12-22T09:28:28.074Z,998.85
2022-12-22T09:29:28.015Z,998.80
2022-12-22T09:30:27.950Z,998.76
2022-12-22T09:31:27.881Z,998.76
2022-12-22T09:32:27.802Z,998.77
2022-12-22T09:33:27.732Z,998.79
2022-12-22T09:34:27.673Z,998.80
2022-12-22T09:35:27.592Z,998.79
2022-12-22T09:36:27.520Z,998.71
2022-12-22T09:37:27.483Z,998.74
2022-12-22T09:38:27.414Z,998.71
2022-12-22T09:39:29.015Z,998.70
2022-12-22T09:40:27.258Z,998.70
2022-12-22T09:41:27.199Z,998.73
2022-12-22T09:42:27.121Z,998.71
2022-12-22T09:43:27.084Z,998.69
2022-12-22T09:44:27.009Z,998.69
2022-12-22T09:45:26.930Z,998.63
2022-12-22T09:46:26.966Z,998.63
2022-12-22T09:47:26.977Z,998.63
2022-12-22T09:48:26.725Z,998.59
2022-12-22T09:49:26.675Z,998.66
2022-12-22T09:50:26.592Z,998.63
2022-12-22T09:51:27.419Z,998.58
2022-12-22T09:52:26.466Z,998.59
2022-12-22T09:53:26.398Z,998.53
2022-12-22T09:54:26.333Z,998.52
2022-12-22T09:55:26.298Z,998.54
2022-12-22T09:56:26.217Z,998.54
2022-12-22T09:57:26.125Z,998.49
2022-12-22T09:58:26.813Z,998.52
2022-12-22T09:59:26.008Z,998.50
2022-12-22T10:00:25.969Z,998.47
2022-12-22T10:01:26.073Z,998.51
2022-12-22T10:02:25.925Z,998.47
2022-12-22T10:03:25.786Z,998.50
2022-12-22T10:04:25.669Z,998.47
2022-12-22T10:05:25.625Z,998.48
2022-12-22T10:06:25.530Z,998.49
2022-12-22T10:07:25.497Z,998.50
2022-12-22T10:08:25.403Z,998.49
2022-12-22T10:09:48.633Z,998.48
2022-12-22T10:10:25.537Z,998.51
2022-12-22T10:11:25.206Z,998.47
2022-12-22T10:12:25.126Z,998.47
2022-12-22T10:13:25.085Z,998.45
2022-12-22T10:14:25.003Z,998.47
2022-12-22T10:15:24.931Z,998.42
2022-12-22T10:16:24.909Z,998.42
2022-12-22T10:17:24.888Z,998.40
2022-12-22T10:18:24.737Z,998.42
2022-12-22T10:19:24.661Z,998.40
2022-12-22T10:20:24.606Z,998.40
2022-12-22T10:21:24.561Z,998.42
2022-12-22T10:22:25.368Z,998.40
2022-12-22T10:23:24.399Z,998.36
2022-12-22T10:24:24.330Z,998.34
2022-12-22T10:25:24.273Z,998.36
2022-12-22T10:26:29.113Z,998.31
2022-12-22T10:27:28.627Z,998.33
2022-12-22T10:28:24.088Z,998.30
2022-12-22T10:29:24.003Z,998.30
2022-12-22T10:30:23.937Z,998.25
2022-12-22T10:31:23.930Z,998.25
2022-12-22T10:32:23.843Z,998.22
2022-12-22T10:33:23.770Z,998.24
2022-12-22T10:34:23.661Z,998.19
2022-12-22T10:35:23.608Z,998.19
2022-12-22T10:36:23.548Z,998.18
2022-12-22T10:37:23.491Z,998.17
2022-12-22T10:38:23.411Z,998.13
2022-12-22T10:39:23.354Z,998.13
2022-12-22T10:40:23.269Z,998.09
2022-12-22T10:41:23.214Z,998.14
2022-12-22T10:42:23.219Z,998.12
2022-12-22T10:43:23.076Z,998.15
2022-12-22T10:44:23.003Z,998.10
2022-12-22T10:45:22.943Z,998.07
2022-12-22T10:46:22.919Z,998.09
2022-12-22T10:47:22.829Z,998.05
2022-12-22T10:48:22.746Z,998.12
2022-12-22T10:49:22.691Z,998.07
2022-12-22T10:50:22.611Z,998.11
2022-12-22T10:51:22.564Z,998.05
2022-12-22T10:52:29.183Z,998.11
2022-12-22T10:53:22.411Z,998.06
2022-12-22T10:54:22.356Z,998.02
2022-12-22T10:55:22.297Z,998.08
2022-12-22T10:56:22.213Z,998.07
2022-12-22T10:57:22.208Z,998.05
2022-12-22T10:58:22.078Z,997.98
2022-12-22T10:59:22.035Z,998.06
2022-12-22T11:00:21.948Z,998.01
2022-12-22T11:01:21.941Z,998.03
2022-12-22T11:02:22.175Z,997.98
2022-12-22T11:03:24.572Z,998.00
2022-12-22T11:04:21.714Z,997.97
2022-12-22T11:05:21.619Z,997.98
2022-12-22T11:06:21.569Z,998.00
2022-12-22T11:07:21.540Z,997.96
2022-12-22T11:08:21.422Z,998.01
2022-12-22T11:09:33.598Z,998.01
2022-12-22T11:10:21.307Z,998.02
2022-12-22T11:11:21.227Z,998.02
2022-12-22T11:12:21.154Z,997.99
2022-12-22T11:13:21.128Z,997.94
2022-12-22T11:14:21.022Z,997.97
2022-12-22T11:15:24.648Z,997.96
2022-12-22T11:16:20.945Z,997.91
2022-12-22T11:17:20.877Z,997.93
2022-12-22T11:18:20.761Z,997.95
2022-12-22T11:19:20.704Z,997.92
2022-12-22T11:20:20.654Z,997.87
2022-12-22T11:21:24.249Z,997.84
2022-12-22T11:22:20.507Z,997.81
2022-12-22T11:23:20.438Z,997.82
2022-12-22T11:24:20.388Z,997.79
2022-12-22T11:25:20.334Z,997.76
2022-12-22T11:26:20.244Z,997.77
2022-12-22T11:27:20.235Z,997.74
2022-12-22T11:28:20.098Z,997.78
2022-12-22T11:29:20.048Z,997.78
2022-12-22T11:30:20.024Z,997.78
2022-12-22T11:31:19.987Z,997.79
2022-12-22T11:32:19.838Z,997.79
2022-12-22T11:33:19.949Z,997.73
2022-12-22T11:34:21.470Z,997.75
2022-12-22T11:35:19.649Z,997.77
2022-12-22T11:36:19.616Z,997.73
2022-12-22T11:37:19.574Z,997.73
2022-12-22T11:38:19.440Z,997.75
2022-12-22T11:39:19.387Z,997.74
2022-12-22T11:40:19.356Z,997.74
2022-12-22T11:41:19.251Z,997.74
2022-12-22T11:42:19.336Z,997.70
2022-12-22T11:43:19.117Z,997.72
2022-12-22T11:44:19.048Z,997.70
2022-12-22T11:45:18.985Z,997.68
2022-12-22T11:46:18.973Z,997.68
2022-12-22T11:47:18.968Z,997.66
2022-12-22T11:48:18.786Z,997.67
2022-12-22T11:49:18.746Z,997.66
2022-12-22T11:50:58.889Z,997.66
2022-12-22T11:51:22.315Z,997.67
2022-12-22T11:52:18.548Z,997.63
2022-12-22T11:53:18.459Z,997.59
2022-12-22T11:54:18.393Z,997.64
2022-12-22T11:55:18.330Z,997.62
2022-12-22T11:56:18.276Z,997.63
2022-12-22T11:57:18.215Z,997.60
2022-12-22T11:58:18.135Z,997.60
2022-12-22T11:59:18.071Z,997.59
2022-12-22T12:00:18.001Z,997.58
2022-12-22T12:01:25.668Z,997.60
2022-12-22T12:02:17.976Z,997.58
2022-12-22T12:03:17.855Z,997.52
2022-12-22T12:04:17.861Z,997.57
2022-12-22T12:05:17.714Z,997.54
2022-12-22T12:06:17.611Z,997.55
2022-12-22T12:07:23.579Z,997.51
2022-12-22T12:08:17.482Z,997.56
2022-12-22T12:09:17.416Z,997.52
2022-12-22T12:10:17.350Z,997.56
2022-12-22T12:11:17.285Z,997.50
2022-12-22T12:12:17.230Z,997.51
2022-12-22T12:13:25.606Z,997.53
2022-12-22T12:14:17.089Z,997.48